Dover Foxcroft, Maine
Current Conditions -  °F | °C
As of 8:53 PM on Saturday 20 Dec 2014 (Local Time) from KBGR Reporting Station
Overcast Overcast  
Wind Chill: 16°   Ceiling: 900
Heat Index: 23°   Visibility: 10mi
Dew Point: 20°   Wind: 6mph
Humidity: 88%   Direction: 330°NNW
Pressure: 30.37"   Gusts: NA
Location:  45.19°N, 69.23°W
Report Text: KBGR 210153Z 33005KT 10SM BKN009 OVC025 M05/M07 A3037 RMK AO2 SLP287 T10501067
Loading
Personal Weather Stations






























Interactive Weather Map New forecast layout! Learn more

10-Day Weather Forecast

Advertisements
Track Severe Weather on mobile